ADDS METAR Data INFO
IDs: Format: Raw Decoded Include TAF

Data at: 2009 UTC 19 Oct 2017

K04W 191954Z AUTO 19012G17KT 10SM CLR 21/02 A2996 RMK AO2
K04W 191934Z AUTO 18012G16KT 10SM CLR 20/01 A2998 RMK AO2
K04W 191915Z AUTO 19011KT 10SM CLR 20/01 A2999 RMK AO2
K04W 191854Z AUTO 18009KT 10SM CLR 19/02 A2999 RMK AO2
K04W 191834Z AUTO 20009KT 10SM CLR 18/02 A3000 RMK AO2
K04W 191759Z AUTO 19008KT 10SM CLR 17/01 A3001 RMK AO2
K04W 191734Z AUTO 19007KT 10SM CLR 17/01 A3003 RMK AO2
K04W 191714Z AUTO 19005KT 10SM CLR 16/02 A3004 RMK AO2
K04W 191654Z AUTO 20006KT 10SM CLR 16/01 A3005 RMK AO2
K04W 191635Z AUTO 20006KT 10SM CLR 15/02 A3005 RMK AO2
K04W 191614Z AUTO 19004KT 10SM CLR 13/02 A3005 RMK AO2
K04W 191554Z AUTO 18004KT 10SM CLR 12/02 A3005 RMK AO2
K04W 191535Z AUTO 20004KT 10SM CLR 11/02 A3005 RMK AO2
K04W 191514Z AUTO 21004KT 10SM CLR 09/02 A3006 RMK AO2
K04W 191454Z AUTO 21004KT 10SM CLR 08/02 A3005 RMK AO2
K04W 191435Z AUTO 20003KT 10SM CLR 07/01 A3004 RMK AO2
K04W 191414Z AUTO 00000KT 10SM CLR 05/01 A3003 RMK AO2
K04W 191354Z AUTO 00000KT 10SM CLR 03/02 A3003 RMK AO2
K04W 191335Z AUTO 00000KT 10SM CLR 02/01 A3003 RMK AO2
K04W 191314Z AUTO 00000KT 10SM CLR 02/00 A3002 RMK AO2
K04W 191255Z AUTO 00000KT 10SM CLR 01/00 A3002 RMK AO2
K04W 191234Z AUTO 22003KT 10SM CLR 02/00 A3002 RMK AO2
K04W 191214Z AUTO 20003KT 10SM CLR 01/00 A3001 RMK AO2
K04W 191155Z AUTO 22003KT 10SM CLR 00/00 A3001 RMK AO2
K04W 191134Z AUTO 00000KT 10SM CLR 01/00 A3000 RMK AO2
K04W 191114Z AUTO 21003KT 10SM CLR 01/00 A3000 RMK AO2
K04W 191055Z AUTO 00000KT 10SM CLR 01/00 A3001 RMK AO2
K04W 191034Z AUTO 21003KT 10SM CLR 02/00 A3001 RMK AO2
K04W 191014Z AUTO 26003KT 10SM CLR 02/00 A3000 RMK AO2
K04W 190955Z AUTO 23003KT 10SM CLR 02/00 A3000 RMK AO2
K04W 190934Z AUTO 23003KT 10SM CLR 02/00 A3000 RMK AO2
K04W 190914Z AUTO 24004KT 10SM CLR 03/00 A2999 RMK AO2
K04W 190855Z AUTO 23003KT 10SM CLR 03/M01 A2999 RMK AO2
K04W 190834Z AUTO 23006KT 10SM CLR 03/M01 A2999 RMK AO2
K04W 190814Z AUTO 24005KT 10SM CLR 03/M01 A2999 RMK AO2
K04W 190755Z AUTO 24005KT 10SM CLR 05/M01 A2999 RMK AO2
K04W 190734Z AUTO 24006KT 10SM CLR 05/M01 A2999 RMK AO2
K04W 190714Z AUTO 24006KT 10SM CLR 05/M01 A2998 RMK AO2
K04W 190654Z AUTO 24005KT 10SM CLR 05/M01 A2998 RMK AO2
K04W 190634Z AUTO 23006KT 10SM CLR 05/M01 A2997 RMK AO2
K04W 190615Z AUTO 23005KT 10SM CLR 06/M01 A2997 RMK AO2
K04W 190554Z AUTO 25006KT 10SM CLR 06/M01 A2996 RMK AO2
K04W 190534Z AUTO 24007KT 10SM CLR 06/M01 A2996 RMK AO2
K04W 190515Z AUTO 24007KT 10SM CLR 07/M01 A2996 RMK AO2
K04W 190454Z AUTO 24006KT 10SM CLR 07/M01 A2996 RMK AO2
K04W 190434Z AUTO 24006KT 10SM CLR 07/M01 A2996 RMK AO2
K04W 190415Z AUTO 24008KT 10SM CLR 08/M01 A2995 RMK AO2
K04W 190354Z AUTO 23009KT 10SM CLR 08/M01 A2995 RMK AO2
K04W 190334Z AUTO 23008KT 10SM CLR 08/M01 A2995 RMK AO2
K04W 190315Z AUTO 23008KT 10SM CLR 08/M02 A2994 RMK AO2
K04W 190254Z AUTO 23006KT 10SM CLR 10/M03 A2994 RMK AO2
K04W 190234Z AUTO 24007KT 10SM CLR 11/M03 A2993 RMK AO2
K04W 190215Z AUTO 25009KT 10SM CLR 11/M03 A2993 RMK AO2
K04W 190154Z AUTO 25010KT 10SM CLR 11/M03 A2991 RMK AO2
K04W 190134Z AUTO 25010G14KT 10SM CLR 11/M03 A2991 RMK AO2
K04W 190115Z AUTO 25009KT 10SM CLR 12/M03 A2990 RMK AO2
K04W 190054Z AUTO 24008KT 10SM CLR 11/M03 A2990 RMK AO2
K04W 190034Z AUTO 26008KT 10SM CLR 12/M04 A2989 RMK AO2
K04W 190015Z AUTO 27011G16KT 10SM CLR 13/M04 A2988 RMK AO2
K04W 182354Z AUTO 26009KT 10SM CLR 13/M05 A2987 RMK AO2
K04W 182334Z AUTO 27007KT 10SM CLR 13/M05 A2986 RMK AO2
K04W 182314Z AUTO 27006KT 10SM CLR 15/M06 A2984 RMK AO2
K04W 182254Z AUTO 28011G19KT 10SM CLR 16/M06 A2984 RMK AO2
K04W 182235Z AUTO 27012G17KT 10SM CLR 16/M03 A2983 RMK AO2
K04W 182214Z AUTO 28009G15KT 10SM CLR 17/M04 A2981 RMK AO2
K04W 182154Z AUTO 29009G18KT 10SM CLR 18/M02 A2980 RMK AO2
K04W 182135Z AUTO 29010G16KT 10SM CLR 19/M03 A2980 RMK AO2
K04W 182114Z AUTO 29009G21KT 10SM CLR 20/M06 A2980 RMK AO2
K04W 182054Z AUTO 28010G21KT 10SM CLR 20/M01 A2979 RMK AO2
K04W 182035Z AUTO 28014G19KT 10SM CLR 21/01 A2978 RMK AO2
K04W 182014Z AUTO 27010G15KT 10SM CLR 21/02 A2977 RMK AO2
K04W 181954Z AUTO 27012G19KT 10SM CLR 21/02 A2977 RMK AO2
K04W 181935Z AUTO 28010G17KT 10SM CLR 21/02 A2977 RMK AO2
K04W 181914Z AUTO 25012G16KT 10SM CLR 20/08 A2978 RMK AO2
K04W 181854Z AUTO 23009KT 10SM CLR 19/08 A2978 RMK AO2
K04W 181835Z AUTO 22012G15KT 10SM CLR 18/08 A2978 RMK AO2
K04W 181814Z AUTO 24009KT 10SM CLR 18/08 A2978 RMK AO2
K04W 181754Z AUTO 23011G15KT 10SM CLR 18/09 A2978 RMK AO2
K04W 181735Z AUTO 23011KT 10SM CLR 18/08 A2978 RMK AO2
K04W 181714Z AUTO 22012KT 10SM CLR 17/08 A2978 RMK AO2
K04W 181655Z AUTO 22012KT 10SM CLR 16/08 A2977 RMK AO2
K04W 181634Z AUTO 22012KT 10SM CLR 16/09 A2978 RMK AO2
K04W 181614Z AUTO 21009KT 10SM CLR 16/09 A2977 RMK AO2
K04W 181555Z AUTO 22008KT 10SM CLR 15/09 A2978 RMK AO2
K04W 181534Z AUTO 23005KT 10SM CLR 15/09 A2978 RMK AO2
K04W 181514Z AUTO 27011G18KT 10SM CLR 14/09 A2980 RMK AO2
K04W 181455Z AUTO 19008KT 10SM CLR 13/08 A2973 RMK AO2
K04W 181434Z AUTO 16011KT 10SM CLR 12/08 A2973 RMK AO2
K04W 181414Z AUTO 17009KT 10SM CLR 12/08 A2975 RMK AO2
K04W 181355Z AUTO 19008KT 10SM CLR 11/08 A2976 RMK AO2
K04W 181334Z AUTO 17007KT 10SM CLR 10/07 A2975 RMK AO2
K04W 181314Z AUTO 17007KT 10SM CLR 10/07 A2976 RMK AO2
K04W 181255Z AUTO 18005KT 10SM CLR 08/07 A2978 RMK AO2
K04W 181234Z AUTO 18005KT 10SM CLR 08/07 A2977 RMK AO2
K04W 181214Z AUTO 18006KT 10SM CLR 09/07 A2977 RMK AO2
K04W 181155Z AUTO 19006KT 10SM CLR 09/07 A2978 RMK AO2
K04W 181134Z AUTO 16006KT 10SM CLR 09/07 A2978 RMK AO2
K04W 181114Z AUTO 17005KT 10SM CLR 09/07 A2979 RMK AO2
K04W 181055Z AUTO 16006KT 10SM CLR 08/07 A2980 RMK AO2
K04W 181034Z AUTO 19003KT 10SM CLR 08/07 A2981 RMK AO2
K04W 181014Z AUTO 15004KT 10SM CLR 09/07 A2981 RMK AO2
K04W 180955Z AUTO 16003KT 10SM CLR 10/07 A2982 RMK AO2
K04W 180934Z AUTO 15004KT 10SM CLR 09/07 A2982 RMK AO2
K04W 180914Z AUTO 17003KT 10SM CLR 09/06 A2982 RMK AO2
K04W 180854Z AUTO 16003KT 10SM CLR 07/06 A2982 RMK AO2
K04W 180834Z AUTO 00000KT 10SM CLR 08/06 A2982 RMK AO2
K04W 180815Z AUTO 18003KT 10SM CLR 08/06 A2983 RMK AO2